createdAt,value
2022-08-16T00:01:24.568Z,87.10
2022-08-16T00:03:53.960Z,92.80
2022-08-16T00:06:22.756Z,92.70
2022-08-16T00:08:50.181Z,86.40
2022-08-16T00:11:20.876Z,86.40
2022-08-16T00:13:54.707Z,85.30
2022-08-16T00:17:00.987Z,88.90
2022-08-16T00:19:25.394Z,93.40
2022-08-16T00:22:01.409Z,90.60
2022-08-16T00:24:31.370Z,90.20
2022-08-16T00:27:01.243Z,90.00
2022-08-16T00:29:29.622Z,93.90
2022-08-16T00:32:01.387Z,92.50
2022-08-16T00:34:43.358Z,88.50
2022-08-16T00:37:21.049Z,90.40
2022-08-16T00:39:57.685Z,93.60
2022-08-16T00:42:32.145Z,90.00
2022-08-16T00:45:09.455Z,94.20
2022-08-16T00:47:42.600Z,88.20
2022-08-16T00:50:18.654Z,87.40
2022-08-16T00:52:51.519Z,86.80
2022-08-16T00:55:22.330Z,92.80
2022-08-16T00:57:58.550Z,91.10
2022-08-16T01:00:32.474Z,90.30
2022-08-16T01:03:12.912Z,91.20
2022-08-16T01:05:41.373Z,90.60
2022-08-16T01:08:35.876Z,91.00
2022-08-16T01:11:00.083Z,90.30
2022-08-16T01:13:32.907Z,87.00
2022-08-16T01:16:10.369Z,91.90
2022-08-16T01:18:47.500Z,91.30
2022-08-16T01:21:54.702Z,86.50
2022-08-16T01:24:53.210Z,93.70
2022-08-16T01:27:26.203Z,91.50
2022-08-16T01:30:19.964Z,93.30
2022-08-16T01:33:01.328Z,86.40
2022-08-16T01:35:37.673Z,86.30
2022-08-16T01:38:28.201Z,93.20
2022-08-16T01:41:11.642Z,90.50
2022-08-16T01:43:54.189Z,86.40
2022-08-16T01:46:39.124Z,86.50
2022-08-16T01:49:45.423Z,86.50
2022-08-16T01:52:30.055Z,86.80
2022-08-16T01:55:25.092Z,86.90
2022-08-16T01:57:56.463Z,86.70
2022-08-16T02:00:29.343Z,93.70
2022-08-16T02:02:59.234Z,87.00
2022-08-16T02:05:30.731Z,91.20
2022-08-16T02:08:00.378Z,87.10
2022-08-16T02:10:28.231Z,94.00
2022-08-16T02:13:00.777Z,91.40
2022-08-16T02:15:40.291Z,89.60
2022-08-16T02:18:12.786Z,87.10
2022-08-16T02:20:45.443Z,87.10
2022-08-16T02:23:13.479Z,92.40
2022-08-16T02:25:52.769Z,91.90
2022-08-16T02:28:23.632Z,93.40
2022-08-16T02:30:54.907Z,87.40
2022-08-16T02:33:24.881Z,92.60
2022-08-16T02:36:42.263Z,94.00
2022-08-16T02:39:05.691Z,86.70
2022-08-16T02:41:34.360Z,87.40
2022-08-16T02:44:08.221Z,87.50
2022-08-16T02:46:36.022Z,87.50
2022-08-16T02:49:07.271Z,87.60
2022-08-16T02:51:36.554Z,92.80
2022-08-16T02:54:04.488Z,93.80
2022-08-16T02:56:32.897Z,93.70
2022-08-16T02:59:00.607Z,87.70
2022-08-16T03:01:36.564Z,88.90
2022-08-16T03:04:41.538Z,93.40
2022-08-16T03:06:59.962Z,88.00
2022-08-16T03:09:39.453Z,88.00
2022-08-16T03:12:07.480Z,88.10
2022-08-16T03:14:35.480Z,93.90
2022-08-16T03:17:04.991Z,88.20
2022-08-16T03:19:47.200Z,93.30
2022-08-16T03:22:28.692Z,94.50
2022-08-16T03:25:08.149Z,93.60
2022-08-16T03:27:39.135Z,88.20
2022-08-16T03:30:28.821Z,94.20
2022-08-16T03:32:59.303Z,92.90
2022-08-16T03:35:33.787Z,92.60
2022-08-16T03:38:34.626Z,88.50
2022-08-16T03:41:03.668Z,88.40
2022-08-16T03:43:51.855Z,88.60
2022-08-16T03:46:48.091Z,88.70
2022-08-16T03:49:12.647Z,93.30
2022-08-16T03:51:43.228Z,89.10
2022-08-16T03:54:15.774Z,93.50
2022-08-16T03:56:56.771Z,94.60
2022-08-16T03:59:25.499Z,93.60
2022-08-16T04:01:56.762Z,88.80
2022-08-16T04:04:32.319Z,92.70
2022-08-16T04:07:04.251Z,93.10
2022-08-16T04:09:38.097Z,94.50
2022-08-16T04:12:10.766Z,89.30
2022-08-16T04:14:46.392Z,93.70
2022-08-16T04:17:15.641Z,91.90
2022-08-16T04:19:45.369Z,92.90
2022-08-16T04:22:17.191Z,94.20
2022-08-16T04:24:54.314Z,91.90
2022-08-16T04:27:28.981Z,94.80
2022-08-16T04:30:03.013Z,95.60
2022-08-16T04:32:33.169Z,89.50
2022-08-16T04:35:08.492Z,93.40
2022-08-16T04:37:42.084Z,89.70
2022-08-16T04:40:21.625Z,94.10
2022-08-16T04:42:54.820Z,94.20
2022-08-16T04:45:35.656Z,90.00
2022-08-16T04:48:10.217Z,95.40
2022-08-16T04:50:46.303Z,94.80
2022-08-16T04:53:16.854Z,93.40
2022-08-16T04:55:53.416Z,92.80
2022-08-16T04:58:44.723Z,94.50
2022-08-16T05:01:09.832Z,94.60
2022-08-16T05:03:41.856Z,90.50
2022-08-16T05:06:41.966Z,90.00
2022-08-16T05:09:12.591Z,93.70
2022-08-16T05:11:40.070Z,95.60
2022-08-16T05:14:08.046Z,95.50
2022-08-16T05:16:38.758Z,93.80
2022-08-16T05:19:11.519Z,90.10
2022-08-16T05:21:52.359Z,94.90
2022-08-16T05:24:22.130Z,92.80
2022-08-16T05:26:52.055Z,90.10
2022-08-16T05:29:20.652Z,95.30
2022-08-16T05:32:01.444Z,92.10
2022-08-16T05:34:29.231Z,88.90
2022-08-16T05:36:57.470Z,92.00
2022-08-16T05:39:33.324Z,92.70
2022-08-16T05:42:05.032Z,95.80
2022-08-16T05:44:32.588Z,90.40
2022-08-16T05:47:02.123Z,91.30
2022-08-16T05:49:39.444Z,99.00
2022-08-16T05:52:13.372Z,97.80
2022-08-16T05:54:47.486Z,95.60
2022-08-16T05:57:20.688Z,93.80
2022-08-16T05:59:59.746Z,96.50
2022-08-16T06:02:40.143Z,90.80
2022-08-16T06:05:21.859Z,92.90
2022-08-16T06:07:58.491Z,90.40
2022-08-16T06:10:32.219Z,90.40
2022-08-16T06:13:02.164Z,93.10
2022-08-16T06:15:30.663Z,93.10
2022-08-16T06:17:59.260Z,94.50
2022-08-16T06:20:35.284Z,93.80
2022-08-16T06:23:17.482Z,95.80
2022-08-16T06:26:00.721Z,93.10
2022-08-16T06:31:09.867Z,95.90
2022-08-16T06:33:42.335Z,96.30
2022-08-16T06:36:14.230Z,90.40
2022-08-16T06:38:55.580Z,90.40
2022-08-16T06:41:39.681Z,95.40
2022-08-16T06:44:20.797Z,94.00
2022-08-16T06:46:51.011Z,90.40
2022-08-16T06:49:20.484Z,94.10
2022-08-16T06:51:48.288Z,90.40
2022-08-16T06:54:22.897Z,93.20
2022-08-16T06:56:54.173Z,92.40
2022-08-16T06:59:25.977Z,90.60
2022-08-16T07:01:58.496Z,92.10
2022-08-16T07:04:32.720Z,93.30
2022-08-16T07:07:06.193Z,93.50
2022-08-16T07:09:37.552Z,94.50
2022-08-16T07:12:05.698Z,90.60
2022-08-16T07:14:35.477Z,97.40
2022-08-16T07:17:08.039Z,96.30
2022-08-16T07:20:02.824Z,94.80
2022-08-16T07:22:37.117Z,91.80
2022-08-16T07:25:14.084Z,93.80
2022-08-16T07:27:42.943Z,92.20
2022-08-16T07:30:44.834Z,93.20
2022-08-16T07:33:07.087Z,97.80
2022-08-16T07:35:35.244Z,98.10
2022-08-16T07:38:03.674Z,93.40
2022-08-16T07:41:09.715Z,93.90
2022-08-16T07:43:40.538Z,97.50
2022-08-16T07:46:38.100Z,92.80
2022-08-16T07:49:02.390Z,92.10
2022-08-16T07:51:37.014Z,96.30
2022-08-16T07:54:10.399Z,97.00
2022-08-16T07:56:43.543Z,91.60
2022-08-16T07:59:10.822Z,94.30
2022-08-16T08:01:38.590Z,92.70
2022-08-16T08:04:11.362Z,91.40
2022-08-16T08:06:42.006Z,91.80
2022-08-16T08:09:14.360Z,94.10
2022-08-16T08:11:59.912Z,94.50
2022-08-16T08:14:32.772Z,93.20
2022-08-16T08:17:01.852Z,94.80
2022-08-16T08:19:31.383Z,93.90
2022-08-16T08:22:02.077Z,92.60
2022-08-16T08:24:38.829Z,92.00
2022-08-16T08:27:11.081Z,90.20
2022-08-16T08:29:40.352Z,92.40
2022-08-16T08:32:57.790Z,93.90
2022-08-16T08:35:04.728Z,94.00
2022-08-16T08:37:55.783Z,92.50
2022-08-16T08:40:27.355Z,93.50
2022-08-16T08:43:00.631Z,90.20
2022-08-16T08:45:49.102Z,89.80
2022-08-16T08:48:34.085Z,94.70
2022-08-16T08:51:10.142Z,86.60
2022-08-16T08:53:57.687Z,88.10
2022-08-16T08:56:34.832Z,88.10
2022-08-16T08:59:22.203Z,94.50
2022-08-16T09:01:57.224Z,89.00
2022-08-16T09:04:28.612Z,89.20
2022-08-16T09:06:58.339Z,88.30
2022-08-16T09:09:33.581Z,89.50
2022-08-16T09:12:06.018Z,95.20
2022-08-16T09:14:49.561Z,93.00
2022-08-16T09:17:45.561Z,90.00
2022-08-16T09:20:13.517Z,87.40
2022-08-16T09:22:41.734Z,87.50
2022-08-16T09:25:12.563Z,87.60
2022-08-16T09:27:57.186Z,87.00
2022-08-16T09:30:36.176Z,93.20
2022-08-16T09:33:12.688Z,90.50
2022-08-16T09:35:42.603Z,88.50
2022-08-16T09:38:12.373Z,92.10
2022-08-16T09:40:49.240Z,91.90
2022-08-16T09:43:46.323Z,92.20
2022-08-16T09:46:46.043Z,90.10
2022-08-16T09:48:56.415Z,87.80
2022-08-16T09:51:26.314Z,87.50
2022-08-16T09:53:57.920Z,90.00
2022-08-16T09:56:29.127Z,93.70
2022-08-16T09:59:03.466Z,93.40
2022-08-16T10:01:33.532Z,94.10
2022-08-16T10:04:01.602Z,85.50
2022-08-16T10:06:33.321Z,91.30
2022-08-16T10:09:08.487Z,93.40
2022-08-16T10:12:11.652Z,92.20
2022-08-16T10:14:46.213Z,90.00
2022-08-16T10:17:13.828Z,90.90
2022-08-16T10:19:43.142Z,88.30
2022-08-16T10:22:12.509Z,93.10
2022-08-16T10:24:56.181Z,90.30
2022-08-16T10:27:29.892Z,92.80
2022-08-16T10:30:26.212Z,92.30
2022-08-16T10:32:56.105Z,93.80
2022-08-16T10:35:24.234Z,92.00
2022-08-16T10:38:00.121Z,91.60
2022-08-16T10:40:29.856Z,90.70
2022-08-16T10:43:02.270Z,90.80
2022-08-16T10:45:37.077Z,90.00
2022-08-16T10:48:27.303Z,81.80
2022-08-16T10:50:58.737Z,91.30
2022-08-16T10:53:32.784Z,91.80
2022-08-16T10:56:51.907Z,85.00
2022-08-16T10:58:54.674Z,91.50
2022-08-16T11:01:43.211Z,90.80
2022-08-16T11:05:04.802Z,81.40
2022-08-16T11:09:44.079Z,84.90
2022-08-16T11:12:13.615Z,75.90
2022-08-16T11:15:11.392Z,87.30
2022-08-16T11:17:28.528Z,75.60
2022-08-16T11:20:36.727Z,73.00
2022-08-16T11:22:49.150Z,85.70
2022-08-16T11:29:12.232Z,88.30
2022-08-16T11:31:05.389Z,86.60
2022-08-16T11:36:27.862Z,80.50
2022-08-16T11:39:02.809Z,77.00
2022-08-16T11:41:32.469Z,76.80
2022-08-16T11:44:01.071Z,89.30
2022-08-16T11:46:43.214Z,75.60
2022-08-16T11:49:14.294Z,85.90
2022-08-16T11:51:45.971Z,85.20
2022-08-16T11:54:21.353Z,86.90
2022-08-16T11:56:52.680Z,76.50
2022-08-16T11:59:28.453Z,75.50
2022-08-16T12:02:00.031Z,73.20
2022-08-16T12:04:32.446Z,72.90
2022-08-16T12:07:02.617Z,72.80
2022-08-16T12:09:31.079Z,70.20
2022-08-16T12:12:02.701Z,71.10
2022-08-16T12:14:35.456Z,77.70
2022-08-16T12:17:06.633Z,65.60
2022-08-16T12:19:36.480Z,78.20
2022-08-16T12:22:19.454Z,67.40
2022-08-16T12:24:52.500Z,75.40
2022-08-16T12:27:23.926Z,68.00
2022-08-16T12:29:52.605Z,66.40
2022-08-16T12:32:35.692Z,69.40
2022-08-16T12:35:10.561Z,80.00
2022-08-16T12:37:38.923Z,75.20
2022-08-16T12:40:24.053Z,66.30
2022-08-16T12:42:59.150Z,62.30
2022-08-16T12:45:30.641Z,62.10
2022-08-16T12:48:33.781Z,60.60
2022-08-16T12:51:05.127Z,67.80
2022-08-16T12:53:39.922Z,57.20
2022-08-16T12:56:10.530Z,62.80
2022-08-16T12:58:50.455Z,54.80
2022-08-16T13:01:29.087Z,71.90
2022-08-16T13:04:20.416Z,62.50
2022-08-16T13:06:48.538Z,77.40
2022-08-16T13:09:26.549Z,77.60
2022-08-16T13:12:01.630Z,67.60
2022-08-16T13:14:38.660Z,61.00
2022-08-16T13:17:17.124Z,58.00
2022-08-16T13:22:43.593Z,56.60
2022-08-16T13:25:20.903Z,67.40
2022-08-16T13:28:14.855Z,62.80
2022-08-16T13:30:51.481Z,61.90
2022-08-16T13:33:30.010Z,59.00
2022-08-16T13:36:00.279Z,53.00
2022-08-16T13:38:37.223Z,65.20
2022-08-16T13:41:12.367Z,56.60
2022-08-16T13:43:41.854Z,54.20
2022-08-16T13:46:09.104Z,56.40
2022-08-16T13:48:44.460Z,52.70
2022-08-16T13:51:16.669Z,56.70
2022-08-16T13:53:59.256Z,49.10
2022-08-16T13:56:31.779Z,55.70
2022-08-16T13:59:19.341Z,50.50
2022-08-16T14:01:55.695Z,48.90
2022-08-16T14:04:26.576Z,57.80
2022-08-16T14:06:57.961Z,52.40
2022-08-16T14:09:27.182Z,64.30
2022-08-16T14:11:57.435Z,61.40
2022-08-16T14:14:29.018Z,70.00
2022-08-16T14:16:58.482Z,72.00
2022-08-16T14:19:28.019Z,65.80
2022-08-16T14:22:15.407Z,65.40
2022-08-16T14:24:51.797Z,63.20
2022-08-16T14:27:24.054Z,62.60
2022-08-16T14:29:53.873Z,69.00
2022-08-16T14:32:33.174Z,67.60
2022-08-16T14:35:11.401Z,62.80
2022-08-16T14:37:39.531Z,65.70
2022-08-16T14:40:14.970Z,63.70
2022-08-16T14:42:43.967Z,67.50
2022-08-16T14:45:15.024Z,62.90
2022-08-16T14:47:42.344Z,61.60
2022-08-16T14:50:14.918Z,68.50
2022-08-16T14:53:03.701Z,62.30
2022-08-16T14:55:35.416Z,62.70
2022-08-16T14:58:04.559Z,61.00
2022-08-16T15:00:36.661Z,63.20
2022-08-16T15:03:10.578Z,59.70
2022-08-16T15:05:40.084Z,64.20
2022-08-16T15:08:07.214Z,59.00
2022-08-16T15:10:42.980Z,65.80
2022-08-16T15:13:15.133Z,73.10
2022-08-16T15:15:43.341Z,62.70
2022-08-16T15:18:11.946Z,71.70
2022-08-16T15:20:41.378Z,69.70
2022-08-16T15:23:10.149Z,65.60
2022-08-16T15:25:46.528Z,63.10
2022-08-16T15:28:30.958Z,70.10
2022-08-16T15:31:06.257Z,68.20
2022-08-16T15:33:43.416Z,60.50
2022-08-16T15:36:18.025Z,69.10
2022-08-16T15:39:02.786Z,61.80
2022-08-16T15:41:38.568Z,57.80
2022-08-16T15:44:13.026Z,67.00
2022-08-16T15:46:55.523Z,66.20
2022-08-16T15:49:34.603Z,60.10
2022-08-16T15:52:29.626Z,66.30
2022-08-16T15:55:00.439Z,61.20
2022-08-16T15:57:40.910Z,64.40
2022-08-16T16:00:20.644Z,64.70
2022-08-16T16:02:49.460Z,62.80
2022-08-16T16:05:18.924Z,61.00
2022-08-16T16:07:56.900Z,70.10
2022-08-16T16:10:37.244Z,63.00
2022-08-16T16:13:14.874Z,71.80
2022-08-16T16:15:50.187Z,66.00
2022-08-16T16:18:19.433Z,69.20
2022-08-16T16:21:04.724Z,71.10
2022-08-16T16:23:44.865Z,66.10
2022-08-16T16:26:22.626Z,63.10
2022-08-16T16:29:08.640Z,65.00
2022-08-16T16:31:41.367Z,68.60
2022-08-16T16:34:11.788Z,61.60
2022-08-16T16:36:39.922Z,72.70
2022-08-16T16:39:10.974Z,67.50
2022-08-16T16:41:40.100Z,64.50
2022-08-16T16:44:09.186Z,69.20
2022-08-16T16:46:56.750Z,61.40
2022-08-16T16:49:24.850Z,70.50
2022-08-16T16:51:53.658Z,71.70
2022-08-16T16:54:35.523Z,64.50
2022-08-16T16:57:03.582Z,58.80
2022-08-16T16:59:30.957Z,69.90
2022-08-16T17:02:38.647Z,62.90
2022-08-16T17:04:47.385Z,66.70
2022-08-16T17:07:14.999Z,64.80
2022-08-16T17:09:42.070Z,59.80
2022-08-16T17:12:12.143Z,69.30
2022-08-16T17:14:53.536Z,70.30
2022-08-16T17:17:20.969Z,70.30
2022-08-16T17:19:48.427Z,64.30
2022-08-16T17:22:20.324Z,67.50
2022-08-16T17:24:52.760Z,71.80
2022-08-16T17:27:33.141Z,69.80
2022-08-16T17:30:20.020Z,64.10
2022-08-16T17:32:55.042Z,71.20
2022-08-16T17:35:34.130Z,61.70
2022-08-16T17:38:06.332Z,73.50
2022-08-16T17:40:50.253Z,68.60
2022-08-16T17:43:34.753Z,64.50
2022-08-16T17:46:05.290Z,65.80
2022-08-16T17:48:52.445Z,65.00
2022-08-16T17:51:20.235Z,61.20
2022-08-16T17:53:50.568Z,63.90
2022-08-16T17:56:19.056Z,59.80
2022-08-16T17:58:46.147Z,62.80
2022-08-16T18:01:13.740Z,61.30
2022-08-16T18:04:06.891Z,60.30
2022-08-16T18:06:29.895Z,59.20
2022-08-16T18:09:03.404Z,59.70
2022-08-16T18:11:33.768Z,64.90
2022-08-16T18:14:01.576Z,61.70
2022-08-16T18:16:28.609Z,64.40
2022-08-16T18:18:55.634Z,59.20
2022-08-16T18:21:41.977Z,59.00
2022-08-16T18:24:10.480Z,75.10
2022-08-16T18:26:38.440Z,68.00
2022-08-16T18:29:06.427Z,76.50
2022-08-16T18:31:33.818Z,68.20
2022-08-16T18:34:01.355Z,78.30
2022-08-16T18:36:28.314Z,74.60
2022-08-16T18:38:55.456Z,67.70
2022-08-16T18:41:26.347Z,68.70
2022-08-16T18:44:00.854Z,70.30
2022-08-16T18:46:43.980Z,67.40
2022-08-16T18:49:18.043Z,78.00
2022-08-16T18:51:46.284Z,72.40
2022-08-16T18:54:18.334Z,77.40
2022-08-16T18:56:56.246Z,68.30
2022-08-16T18:59:27.122Z,68.20
2022-08-16T19:01:59.697Z,68.30
2022-08-16T19:04:56.055Z,70.00
2022-08-16T19:07:15.627Z,69.30
2022-08-16T19:09:42.686Z,68.60
2022-08-16T19:12:09.876Z,71.10
2022-08-16T19:14:36.899Z,75.00
2022-08-16T19:17:05.352Z,70.70
2022-08-16T19:19:32.352Z,72.50
2022-08-16T19:21:59.579Z,73.10
2022-08-16T19:24:29.268Z,69.20
2022-08-16T19:26:57.179Z,69.30
2022-08-16T19:29:24.542Z,69.30
2022-08-16T19:31:51.574Z,69.40
2022-08-16T19:34:18.822Z,70.40
2022-08-16T19:36:45.846Z,69.60
2022-08-16T19:39:15.439Z,78.80
2022-08-16T19:41:51.964Z,69.80
2022-08-16T19:44:22.231Z,71.40
2022-08-16T19:46:49.676Z,71.00
2022-08-16T19:49:17.166Z,79.80
2022-08-16T19:51:46.782Z,76.20
2022-08-16T19:54:14.200Z,71.20
2022-08-16T19:59:20.844Z,69.50
2022-08-16T20:01:52.246Z,79.70
2022-08-16T20:04:21.602Z,81.30
2022-08-16T20:06:49.025Z,79.80
2022-08-16T20:09:16.272Z,78.90
2022-08-16T20:11:47.313Z,79.90
2022-08-16T20:14:25.763Z,79.00
2022-08-16T20:16:56.107Z,79.90
2022-08-16T20:19:23.745Z,71.10
2022-08-16T20:21:50.863Z,80.60
2022-08-16T20:24:35.667Z,71.20
2022-08-16T20:27:06.401Z,80.10
2022-08-16T20:29:34.441Z,80.60
2022-08-16T20:32:01.481Z,80.50
2022-08-16T20:34:28.506Z,80.50
2022-08-16T20:36:55.543Z,71.60
2022-08-16T20:39:24.042Z,81.00
2022-08-16T20:41:51.192Z,79.00
2022-08-16T20:44:18.332Z,81.00
2022-08-16T20:46:50.068Z,81.10
2022-08-16T20:49:17.020Z,81.10
2022-08-16T20:51:49.455Z,81.50
2022-08-16T20:54:19.575Z,72.40
2022-08-16T20:56:46.751Z,79.20
2022-08-16T20:59:13.925Z,81.40
2022-08-16T21:01:46.834Z,72.40
2022-08-16T21:04:22.851Z,81.60
2022-08-16T21:06:53.482Z,74.80
2022-08-16T21:09:24.565Z,81.90
2022-08-16T21:11:57.008Z,81.80
2022-08-16T21:14:24.070Z,82.10
2022-08-16T21:16:51.576Z,73.20
2022-08-16T21:19:19.640Z,82.30
2022-08-16T21:21:46.893Z,73.40
2022-08-16T21:24:14.082Z,82.60
2022-08-16T21:26:41.205Z,79.30
2022-08-16T21:29:17.954Z,82.70
2022-08-16T21:31:44.909Z,81.10
2022-08-16T21:34:11.887Z,82.80
2022-08-16T21:36:38.835Z,83.10
2022-08-16T21:39:06.738Z,83.40
2022-08-16T21:41:35.474Z,73.40
2022-08-16T21:44:02.715Z,83.50
2022-08-16T21:46:29.654Z,83.70
2022-08-16T21:48:56.781Z,74.30
2022-08-16T21:51:23.710Z,74.40
2022-08-16T21:53:50.688Z,83.80
2022-08-16T21:56:17.762Z,83.80
2022-08-16T21:58:46.487Z,83.90
2022-08-16T22:01:23.800Z,84.00
2022-08-16T22:04:35.723Z,84.50
2022-08-16T22:06:40.588Z,84.20
2022-08-16T22:09:09.882Z,85.00
2022-08-16T22:11:36.936Z,84.40
2022-08-16T22:14:04.643Z,84.60
2022-08-16T22:16:37.930Z,84.50
2022-08-16T22:19:05.394Z,79.60
2022-08-16T22:21:34.055Z,84.80
2022-08-16T22:24:01.039Z,85.00
2022-08-16T22:26:32.287Z,84.90
2022-08-16T22:29:12.397Z,85.00
2022-08-16T22:31:41.027Z,85.10
2022-08-16T22:34:08.890Z,75.90
2022-08-16T22:36:36.468Z,84.20
2022-08-16T22:39:09.553Z,85.50
2022-08-16T22:41:38.493Z,85.70
2022-08-16T22:44:07.170Z,76.00
2022-08-16T22:46:36.769Z,86.10
2022-08-16T22:49:05.996Z,84.80
2022-08-16T22:51:33.276Z,85.80
2022-08-16T22:54:00.927Z,85.20
2022-08-16T22:56:47.870Z,84.70
2022-08-16T22:59:14.778Z,81.40
2022-08-16T23:01:41.865Z,86.90
2022-08-16T23:04:08.824Z,82.30
2022-08-16T23:06:35.789Z,86.20
2022-08-16T23:09:03.056Z,86.10
2022-08-16T23:11:29.983Z,86.60
2022-08-16T23:13:56.982Z,86.30
2022-08-16T23:16:34.474Z,86.60
2022-08-16T23:19:08.397Z,86.60
2022-08-16T23:21:37.661Z,86.80
2022-08-16T23:24:07.011Z,86.70
2022-08-16T23:26:47.205Z,86.70
2022-08-16T23:29:25.491Z,79.40
2022-08-16T23:32:11.000Z,86.20
2022-08-16T23:34:37.969Z,86.90
2022-08-16T23:37:06.482Z,77.30
2022-08-16T23:39:33.587Z,85.80
2022-08-16T23:42:00.692Z,85.40
2022-08-16T23:44:55.744Z,84.50
2022-08-16T23:47:14.707Z,87.30
2022-08-16T23:49:57.316Z,87.40
2022-08-16T23:52:42.368Z,85.30
2022-08-16T23:57:44.827Z,87.20
